Time;durP1;ratioP1;P1;durP2;ratioP2;P2;SDS_P1;SDS_P2;PMS_P1;PMS_P2;Temp;Humidity;BMP_temperature;BMP_pressure;BME280_temperature;BME280_humidity;BME280_pressure;Samples;Min_cycle;Max_cycle;Signal;HPM_P1;HPM_P2
2023/01/29 00:02:04;;;;;;;32.70;17.57;;;;;;;;;;5023326;28;20210;-66
2023/01/29 00:04:30;;;;;;;34.53;18.60;;;;;;;;;;5025090;28;20197;-66
2023/01/29 00:06:55;;;;;;;29.73;17.90;;;;;;;;;;5034203;28;20198;-66
2023/01/29 00:09:20;;;;;;;28.57;16.77;;;;;;;;;;5027360;28;20190;-67
2023/01/29 00:11:46;;;;;;;33.00;17.13;;;;;;;;;;5039732;28;20735;-67
2023/01/29 00:14:12;;;;;;;32.33;18.47;;;;;;;;;;5029168;28;20186;-66
2023/01/29 00:16:37;;;;;;;29.53;17.63;;;;;;;;;;5025143;28;20301;-65
2023/01/29 00:19:03;;;;;;;34.57;19.30;;;;;;;;;;5028524;28;20539;-65
2023/01/29 00:21:32;;;;;;;30.70;18.33;;;;;;;;;;5024076;28;20263;-66
2023/01/29 00:23:58;;;;;;;29.67;16.87;;;;;;;;;;5033432;28;20217;-65
2023/01/29 00:26:24;;;;;;;31.23;17.33;;;;;;;;;;5043980;28;20470;-65
2023/01/29 00:28:49;;;;;;;32.13;18.37;;;;;;;;;;5045014;28;20204;-65
2023/01/29 00:31:19;;;;;;;32.67;17.67;;;;;;;;;;5042377;28;20571;-66
2023/01/29 00:33:44;;;;;;;30.70;17.03;;;;;;;;;;5047283;28;20193;-66
2023/01/29 00:36:12;;;;;;;32.23;16.23;;;;;;;;;;5046012;28;20213;-67
2023/01/29 00:38:37;;;;;;;31.33;17.90;;;;;;;;;;5040302;28;20197;-67
2023/01/29 00:46:44;;;;;;;28.10;16.70;;;;;;;;;;5042289;28;20191;-66
2023/01/29 00:49:09;;;;;;;32.40;18.30;;;;;;;;;;5046207;28;20237;-66
2023/01/29 00:51:36;;;;;;;30.90;17.40;;;;;;;;;;5039771;28;20289;-66
2023/01/29 00:54:03;;;;;;;30.07;17.23;;;;;;;;;;5037907;28;20200;-66
2023/01/29 00:56:29;;;;;;;30.27;16.37;;;;;;;;;;5032352;28;20201;-66
2023/01/29 00:58:55;;;;;;;30.40;16.77;;;;;;;;;;5044392;28;20197;-66
2023/01/29 01:04:08;;;;;;;30.57;17.33;;;;;;;;;;5043668;28;20200;-66
2023/01/29 01:06:37;;;;;;;31.13;17.93;;;;;;;;;;5029997;28;20268;-66
2023/01/29 01:11:47;;;;;;;31.67;17.20;;;;;;;;;;5026306;28;20193;-66
2023/01/29 01:14:12;;;;;;;32.63;17.17;;;;;;;;;;5034959;28;20186;-68
2023/01/29 01:16:38;;;;;;;29.90;16.93;;;;;;;;;;5040928;28;21727;-66
2023/01/29 01:19:03;;;;;;;31.13;17.83;;;;;;;;;;5044852;28;20217;-66
2023/01/29 01:21:29;;;;;;;31.90;17.90;;;;;;;;;;5038089;28;20189;-66
2023/01/29 01:23:55;;;;;;;30.30;17.97;;;;;;;;;;5044504;28;20193;-66
2023/01/29 01:26:20;;;;;;;30.87;17.83;;;;;;;;;;5040735;28;20185;-66
2023/01/29 01:28:45;;;;;;;31.57;17.60;;;;;;;;;;5039753;28;20189;-66
2023/01/29 01:31:12;;;;;;;35.47;18.17;;;;;;;;;;5040801;28;20649;-66
2023/01/29 01:33:39;;;;;;;33.60;17.83;;;;;;;;;;5046961;28;20522;-66
2023/01/29 01:36:08;;;;;;;32.97;17.77;;;;;;;;;;5042425;28;20214;-66
2023/01/29 01:38:36;;;;;;;31.60;17.53;;;;;;;;;;5041686;28;20177;-66
2023/01/29 01:41:01;;;;;;;34.17;18.60;;;;;;;;;;5036800;28;20190;-66
2023/01/29 01:43:26;;;;;;;31.40;17.90;;;;;;;;;;5038849;28;20207;-66
2023/01/29 01:45:52;;;;;;;31.73;17.83;;;;;;;;;;5034677;28;20263;-66
2023/01/29 01:48:22;;;;;;;32.27;18.60;;;;;;;;;;5031352;28;20198;-66
2023/01/29 01:50:55;;;;;;;29.07;16.87;;;;;;;;;;5040375;28;20190;-65
2023/01/29 01:53:41;;;;;;;33.77;18.13;;;;;;;;;;5038170;28;20289;-65
2023/01/29 01:56:15;;;;;;;33.93;18.33;;;;;;;;;;5035068;28;20213;-65
2023/01/29 01:58:49;;;;;;;33.37;17.40;;;;;;;;;;5026941;28;20202;-66
2023/01/29 02:01:16;;;;;;;31.27;17.63;;;;;;;;;;5033367;28;20217;-66
2023/01/29 02:09:42;;;;;;;31.40;17.87;;;;;;;;;;5042882;28;20181;-65
2023/01/29 02:12:12;;;;;;;32.50;18.23;;;;;;;;;;5032798;28;20186;-65
2023/01/29 02:14:39;;;;;;;32.93;17.87;;;;;;;;;;5024593;28;20197;-66
2023/01/29 02:17:07;;;;;;;32.50;17.70;;;;;;;;;;5025693;28;20241;-65
2023/01/29 02:19:46;;;;;;;30.30;17.83;;;;;;;;;;5036840;28;20194;-65
2023/01/29 02:22:36;;;;;;;31.23;17.43;;;;;;;;;;5032594;28;20189;-65
2023/01/29 02:25:21;;;;;;;34.33;17.57;;;;;;;;;;5034366;28;20192;-66
2023/01/29 02:27:47;;;;;;;30.77;18.07;;;;;;;;;;5020891;28;20376;-65
2023/01/29 02:30:27;;;;;;;32.40;18.07;;;;;;;;;;5026607;28;20718;-67
2023/01/29 02:33:15;;;;;;;29.07;16.10;;;;;;;;;;5025995;28;20186;-65
2023/01/29 02:36:02;;;;;;;31.60;17.67;;;;;;;;;;5015081;28;20271;-66
2023/01/29 02:38:54;;;;;;;32.47;17.73;;;;;;;;;;5030960;28;20194;-66
2023/01/29 02:41:30;;;;;;;33.40;17.50;;;;;;;;;;5023585;28;20192;-66
2023/01/29 02:44:00;;;;;;;31.87;17.33;;;;;;;;;;5025331;28;20556;-66
2023/01/29 02:46:29;;;;;;;29.37;16.53;;;;;;;;;;5020646;28;20201;-66
2023/01/29 02:49:20;;;;;;;36.27;18.60;;;;;;;;;;5029783;28;20198;-66
2023/01/29 02:51:59;;;;;;;34.93;18.23;;;;;;;;;;5016328;28;20198;-66
2023/01/29 02:54:38;;;;;;;32.40;17.80;;;;;;;;;;5024495;28;20552;-66
2023/01/29 02:57:30;;;;;;;32.50;17.17;;;;;;;;;;5023916;28;20624;-66
2023/01/29 03:00:17;;;;;;;32.97;18.03;;;;;;;;;;5038297;28;21470;-66
2023/01/29 03:03:11;;;;;;;31.87;17.60;;;;;;;;;;5022801;28;20202;-66
2023/01/29 03:05:56;;;;;;;32.93;18.00;;;;;;;;;;5036893;28;20261;-66
2023/01/29 03:08:35;;;;;;;32.53;17.57;;;;;;;;;;5029270;28;20217;-67
2023/01/29 03:11:04;;;;;;;31.90;18.17;;;;;;;;;;5029345;28;20482;-66
2023/01/29 03:13:37;;;;;;;31.57;17.87;;;;;;;;;;5031285;28;20216;-66
2023/01/29 03:16:28;;;;;;;30.53;17.47;;;;;;;;;;5029046;28;20296;-66
2023/01/29 03:18:59;;;;;;;30.27;16.40;;;;;;;;;;5025022;28;20289;-66
2023/01/29 03:32:42;;;;;;;31.30;17.23;;;;;;;;;;5024785;28;20568;-66
2023/01/29 03:35:11;;;;;;;30.10;18.30;;;;;;;;;;5028165;28;20271;-66
2023/01/29 03:37:47;;;;;;;33.50;18.00;;;;;;;;;;5022772;28;20220;-66
2023/01/29 03:40:13;;;;;;;32.50;18.53;;;;;;;;;;5026124;28;20186;-66
2023/01/29 03:42:48;;;;;;;31.43;18.43;;;;;;;;;;5025357;28;20281;-67
2023/01/29 03:45:49;;;;;;;32.13;17.67;;;;;;;;;;5028162;28;20181;-66
2023/01/29 03:48:30;;;;;;;30.37;17.97;;;;;;;;;;5032041;28;20247;-66
2023/01/29 03:51:16;;;;;;;33.73;18.60;;;;;;;;;;5020022;28;20198;-66
2023/01/29 03:53:56;;;;;;;33.03;18.77;;;;;;;;;;5029584;28;20197;-66
2023/01/29 03:56:51;;;;;;;35.63;19.53;;;;;;;;;;5036187;28;20260;-66
2023/01/29 03:59:41;;;;;;;33.40;18.47;;;;;;;;;;5030192;28;20549;-66
2023/01/29 04:02:26;;;;;;;32.97;18.23;;;;;;;;;;5027064;28;20186;-66
2023/01/29 04:04:56;;;;;;;36.13;18.70;;;;;;;;;;5029017;28;20186;-66
2023/01/29 04:07:23;;;;;;;35.33;18.40;;;;;;;;;;5030583;28;20221;-66
2023/01/29 04:09:59;;;;;;;34.50;18.27;;;;;;;;;;5029194;28;20237;-66
2023/01/29 04:12:30;;;;;;;31.10;18.10;;;;;;;;;;5011395;28;20297;-66
2023/01/29 04:14:58;;;;;;;34.83;18.50;;;;;;;;;;5024564;28;20321;-66
2023/01/29 04:17:31;;;;;;;33.07;18.67;;;;;;;;;;5026916;28;20214;-66
2023/01/29 04:19:59;;;;;;;31.90;16.97;;;;;;;;;;5030907;28;20213;-66
2023/01/29 04:22:35;;;;;;;33.47;18.63;;;;;;;;;;5030030;28;20194;-65
2023/01/29 04:25:07;;;;;;;33.23;18.30;;;;;;;;;;5029393;28;20194;-66
2023/01/29 04:27:51;;;;;;;35.37;18.40;;;;;;;;;;5022595;28;20233;-65
2023/01/29 04:30:53;;;;;;;34.87;18.10;;;;;;;;;;5025259;28;20290;-66
2023/01/29 04:33:39;;;;;;;32.07;17.43;;;;;;;;;;5024746;28;20512;-65
2023/01/29 04:36:16;;;;;;;34.07;18.93;;;;;;;;;;5021497;28;20206;-65
2023/01/29 04:39:03;;;;;;;35.00;18.23;;;;;;;;;;5016613;28;20185;-66
2023/01/29 04:41:32;;;;;;;34.30;18.47;;;;;;;;;;5028972;28;20537;-66
2023/01/29 04:44:14;;;;;;;32.37;17.47;;;;;;;;;;5028560;28;20213;-66
2023/01/29 04:47:27;;;;;;;32.93;17.90;;;;;;;;;;5029573;28;20253;-66
2023/01/29 04:50:01;;;;;;;31.23;17.60;;;;;;;;;;5017625;28;20214;-65
2023/01/29 04:52:48;;;;;;;36.60;18.20;;;;;;;;;;5018951;28;20194;-67
2023/01/29 04:55:21;;;;;;;33.47;17.77;;;;;;;;;;5022416;28;20232;-66
2023/01/29 04:58:20;;;;;;;34.63;19.03;;;;;;;;;;5028835;28;20197;-66
2023/01/29 05:00:48;;;;;;;38.10;18.57;;;;;;;;;;5011144;28;20223;-66
2023/01/29 05:03:15;;;;;;;33.23;17.37;;;;;;;;;;5020031;28;20328;-66
2023/01/29 05:05:43;;;;;;;31.73;17.57;;;;;;;;;;5025549;28;20715;-66
2023/01/29 05:08:12;;;;;;;30.80;17.70;;;;;;;;;;5023634;28;20281;-66
2023/01/29 05:10:38;;;;;;;35.13;18.90;;;;;;;;;;5023779;28;20186;-66
2023/01/29 05:13:07;;;;;;;32.97;18.60;;;;;;;;;;5020925;28;20216;-66
2023/01/29 05:15:39;;;;;;;35.17;17.67;;;;;;;;;;5022550;28;20240;-66
2023/01/29 05:18:07;;;;;;;34.57;18.07;;;;;;;;;;5019708;28;20256;-66
2023/01/29 05:20:36;;;;;;;32.70;17.57;;;;;;;;;;5016323;28;20182;-66
2023/01/29 05:23:02;;;;;;;32.70;17.27;;;;;;;;;;5029549;28;20266;-66
2023/01/29 05:25:31;;;;;;;31.17;18.13;;;;;;;;;;5026126;28;20284;-66
2023/01/29 05:28:10;;;;;;;31.40;17.57;;;;;;;;;;5021326;28;20248;-66
2023/01/29 05:30:37;;;;;;;33.07;18.07;;;;;;;;;;5023432;28;20194;-66
2023/01/29 05:33:04;;;;;;;35.20;18.57;;;;;;;;;;5017389;28;20192;-66
2023/01/29 05:35:30;;;;;;;31.87;17.77;;;;;;;;;;5020930;28;20431;-65
2023/01/29 05:37:56;;;;;;;32.07;18.93;;;;;;;;;;5025318;28;20751;-66
2023/01/29 05:40:23;;;;;;;32.73;18.53;;;;;;;;;;5025936;28;20198;-66
2023/01/29 05:42:49;;;;;;;30.43;17.57;;;;;;;;;;5020335;28;20193;-65
2023/01/29 05:45:15;;;;;;;32.03;17.10;;;;;;;;;;5026656;28;20497;-65
2023/01/29 05:47:40;;;;;;;32.13;17.97;;;;;;;;;;5024539;28;20655;-66
2023/01/29 05:50:06;;;;;;;31.07;17.40;;;;;;;;;;5029593;28;20240;-66
2023/01/29 05:52:32;;;;;;;32.00;18.97;;;;;;;;;;5027273;28;20514;-66
2023/01/29 05:54:57;;;;;;;29.83;16.73;;;;;;;;;;5029590;28;20311;-66
2023/01/29 05:57:23;;;;;;;32.13;17.73;;;;;;;;;;5028621;28;20272;-66
2023/01/29 05:59:48;;;;;;;32.23;18.50;;;;;;;;;;5024052;28;20214;-66
2023/01/29 06:02:13;;;;;;;33.20;17.90;;;;;;;;;;5019276;28;20203;-66
2023/01/29 06:04:39;;;;;;;36.83;19.87;;;;;;;;;;5027792;28;20252;-66
2023/01/29 06:07:04;;;;;;;34.73;18.97;;;;;;;;;;5027159;28;20202;-66
2023/01/29 06:09:29;;;;;;;33.17;18.93;;;;;;;;;;5028898;28;20197;-66
2023/01/29 06:11:55;;;;;;;35.47;18.90;;;;;;;;;;5026788;28;20198;-66
2023/01/29 06:14:20;;;;;;;35.57;19.03;;;;;;;;;;5026634;28;20209;-65
2023/01/29 06:16:45;;;;;;;33.80;18.13;;;;;;;;;;5024998;28;20293;-66
2023/01/29 06:19:11;;;;;;;36.00;19.67;;;;;;;;;;5023262;28;20190;-66
2023/01/29 06:21:36;;;;;;;34.13;19.00;;;;;;;;;;5018356;28;20266;-66
2023/01/29 06:24:02;;;;;;;34.23;18.07;;;;;;;;;;5016939;28;20186;-66
2023/01/29 06:26:27;;;;;;;31.57;17.97;;;;;;;;;;5023975;28;20217;-65
2023/01/29 06:28:52;;;;;;;36.33;19.60;;;;;;;;;;5026003;28;20295;-65
2023/01/29 06:31:18;;;;;;;35.97;19.70;;;;;;;;;;5028206;28;20530;-65
2023/01/29 06:33:43;;;;;;;33.33;19.13;;;;;;;;;;5022098;28;20190;-65
2023/01/29 06:36:09;;;;;;;34.50;18.60;;;;;;;;;;5019674;28;20233;-66
2023/01/29 06:38:34;;;;;;;30.97;17.73;;;;;;;;;;5028021;28;20194;-66
2023/01/29 06:41:11;;;;;;;39.00;20.97;;;;;;;;;;5030664;28;20205;-66
2023/01/29 06:43:37;;;;;;;34.70;19.30;;;;;;;;;;5034224;28;20185;-66
2023/01/29 06:46:03;;;;;;;36.30;19.93;;;;;;;;;;5030676;28;20266;-66
2023/01/29 06:48:29;;;;;;;33.33;19.63;;;;;;;;;;5033057;28;20193;-65
2023/01/29 06:50:55;;;;;;;35.40;19.30;;;;;;;;;;5030637;28;20205;-66
2023/01/29 06:53:20;;;;;;;33.13;18.40;;;;;;;;;;5025309;28;20556;-66
2023/01/29 06:55:52;;;;;;;33.97;19.67;;;;;;;;;;5037614;28;20218;-66
2023/01/29 06:58:19;;;;;;;33.23;19.27;;;;;;;;;;5031770;28;20186;-66
2023/01/29 07:00:44;;;;;;;34.83;19.10;;;;;;;;;;5029591;28;20206;-66
2023/01/29 07:03:10;;;;;;;36.03;20.23;;;;;;;;;;5029156;28;20186;-66
2023/01/29 07:05:36;;;;;;;31.73;19.13;;;;;;;;;;5032544;28;20190;-66
2023/01/29 07:08:01;;;;;;;33.80;18.77;;;;;;;;;;5029223;28;20197;-66
2023/01/29 07:10:27;;;;;;;30.83;18.40;;;;;;;;;;5026648;28;20755;-66
2023/01/29 07:12:52;;;;;;;33.37;19.33;;;;;;;;;;5033057;28;20198;-68
2023/01/29 07:15:20;;;;;;;33.00;18.87;;;;;;;;;;5019676;28;20616;-66
2023/01/29 07:18:10;;;;;;;36.90;19.47;;;;;;;;;;5023694;28;20638;-66
2023/01/29 07:20:37;;;;;;;31.87;18.70;;;;;;;;;;5032546;28;20261;-66
2023/01/29 07:23:02;;;;;;;32.90;18.07;;;;;;;;;;5028796;28;20195;-66
2023/01/29 07:25:29;;;;;;;33.63;19.07;;;;;;;;;;5029819;28;20186;-66
2023/01/29 07:27:54;;;;;;;35.87;19.30;;;;;;;;;;5029559;28;20280;-66
2023/01/29 07:30:20;;;;;;;35.60;19.37;;;;;;;;;;5026439;28;20567;-66
2023/01/29 07:32:45;;;;;;;37.33;20.80;;;;;;;;;;5025059;28;20205;-66
2023/01/29 07:35:11;;;;;;;35.00;19.70;;;;;;;;;;5030572;28;20208;-66
2023/01/29 07:37:36;;;;;;;33.57;18.37;;;;;;;;;;5029791;28;20252;-66
2023/01/29 07:40:04;;;;;;;33.27;18.70;;;;;;;;;;5024872;28;20654;-67
2023/01/29 07:42:29;;;;;;;34.00;19.17;;;;;;;;;;5030746;28;20335;-67
2023/01/29 07:44:55;;;;;;;31.53;18.50;;;;;;;;;;5026076;28;20665;-65
2023/01/29 07:47:20;;;;;;;33.57;18.33;;;;;;;;;;5032112;28;20650;-65
2023/01/29 07:49:45;;;;;;;34.20;18.30;;;;;;;;;;5031881;28;20534;-65
2023/01/29 07:52:11;;;;;;;34.77;18.73;;;;;;;;;;5023218;28;20662;-67
2023/01/29 07:54:36;;;;;;;36.67;19.80;;;;;;;;;;5025126;28;20251;-65
2023/01/29 07:57:01;;;;;;;35.13;19.70;;;;;;;;;;5028759;28;20260;-65
2023/01/29 07:59:27;;;;;;;33.43;18.57;;;;;;;;;;5035076;28;20189;-67
2023/01/29 08:01:52;;;;;;;35.40;19.57;;;;;;;;;;5033776;28;20198;-65
2023/01/29 08:04:18;;;;;;;35.87;19.07;;;;;;;;;;5037266;28;20258;-65
2023/01/29 08:06:43;;;;;;;34.37;19.10;;;;;;;;;;5045179;28;20184;-65
2023/01/29 08:09:09;;;;;;;33.40;18.93;;;;;;;;;;5037161;28;20355;-66
2023/01/29 08:11:35;;;;;;;35.97;19.90;;;;;;;;;;5037496;28;20208;-65
2023/01/29 08:14:00;;;;;;;36.17;19.73;;;;;;;;;;5031089;28;20224;-65
2023/01/29 08:16:25;;;;;;;35.47;19.67;;;;;;;;;;5042410;28;20202;-65
2023/01/29 08:18:51;;;;;;;36.23;19.87;;;;;;;;;;5039355;28;20198;-66
2023/01/29 08:21:16;;;;;;;34.33;19.80;;;;;;;;;;5040212;28;20661;-65
2023/01/29 08:23:41;;;;;;;37.60;19.87;;;;;;;;;;5037044;28;20198;-66
2023/01/29 08:26:07;;;;;;;36.77;19.97;;;;;;;;;;5041327;28;20182;-66
2023/01/29 08:28:34;;;;;;;35.43;19.53;;;;;;;;;;5027379;28;20737;-66
2023/01/29 08:30:59;;;;;;;36.50;19.83;;;;;;;;;;5047423;28;20944;-66
2023/01/29 08:33:27;;;;;;;34.37;19.60;;;;;;;;;;5036881;28;20185;-65
2023/01/29 08:35:53;;;;;;;34.73;19.30;;;;;;;;;;5044909;28;20796;-65
2023/01/29 08:38:19;;;;;;;39.63;21.60;;;;;;;;;;5041337;28;20286;-65
2023/01/29 08:40:45;;;;;;;37.43;21.20;;;;;;;;;;5042733;28;20193;-65
2023/01/29 08:43:12;;;;;;;38.67;20.73;;;;;;;;;;5019588;28;20243;-65
2023/01/29 08:45:42;;;;;;;44.93;22.40;;;;;;;;;;5045529;28;20198;-66
2023/01/29 08:48:11;;;;;;;34.93;19.83;;;;;;;;;;5042054;28;20197;-65
2023/01/29 08:50:37;;;;;;;34.13;18.93;;;;;;;;;;5042366;28;20223;-65
2023/01/29 08:53:06;;;;;;;30.93;18.37;;;;;;;;;;5037132;28;20189;-66
2023/01/29 08:55:38;;;;;;;37.73;19.87;;;;;;;;;;5041402;28;20569;-66
2023/01/29 08:58:04;;;;;;;35.43;19.40;;;;;;;;;;5046380;28;20743;-66
2023/01/29 09:00:30;;;;;;;34.03;17.93;;;;;;;;;;5047765;28;20270;-66
2023/01/29 09:02:58;;;;;;;31.80;18.47;;;;;;;;;;5012154;28;20201;-66
2023/01/29 09:05:24;;;;;;;35.00;18.97;;;;;;;;;;5045703;28;20683;-66
2023/01/29 09:07:50;;;;;;;35.27;19.30;;;;;;;;;;5004146;28;20633;-66
2023/01/29 09:10:15;;;;;;;33.47;18.70;;;;;;;;;;5040300;28;20213;-65
2023/01/29 09:12:41;;;;;;;33.07;17.80;;;;;;;;;;5044845;28;20204;-65
2023/01/29 09:15:07;;;;;;;34.83;18.97;;;;;;;;;;5043005;28;20208;-66
2023/01/29 09:17:33;;;;;;;30.67;18.03;;;;;;;;;;5040746;28;20239;-66
2023/01/29 09:19:58;;;;;;;35.10;18.90;;;;;;;;;;5027728;28;20193;-66
2023/01/29 09:22:24;;;;;;;35.27;18.90;;;;;;;;;;5042952;28;20452;-66
2023/01/29 09:24:49;;;;;;;35.80;18.97;;;;;;;;;;5039864;28;20612;-67
2023/01/29 09:27:15;;;;;;;31.07;17.23;;;;;;;;;;5042350;28;20229;-66
2023/01/29 09:29:43;;;;;;;31.93;18.07;;;;;;;;;;5035559;28;20205;-65
2023/01/29 09:32:08;;;;;;;35.47;18.30;;;;;;;;;;5035072;28;20190;-65
2023/01/29 09:34:34;;;;;;;32.87;17.83;;;;;;;;;;5039977;28;20193;-66
2023/01/29 09:37:00;;;;;;;31.30;18.03;;;;;;;;;;5017801;28;20241;-66
2023/01/29 09:39:25;;;;;;;30.97;18.00;;;;;;;;;;5030671;28;20406;-66
2023/01/29 09:42:06;;;;;;;30.87;17.83;;;;;;;;;;5017904;28;20251;-66
2023/01/29 09:44:40;;;;;;;33.53;16.87;;;;;;;;;;5023030;28;20192;-66
2023/01/29 09:47:12;;;;;;;32.13;17.70;;;;;;;;;;5035695;28;20248;-65
2023/01/29 09:49:51;;;;;;;35.03;18.03;;;;;;;;;;5039385;28;20181;-66
2023/01/29 09:52:22;;;;;;;34.43;18.20;;;;;;;;;;5052440;28;20212;-66
2023/01/29 09:55:17;;;;;;;32.20;17.13;;;;;;;;;;5032145;28;20657;-66
2023/01/29 09:57:58;;;;;;;34.50;17.90;;;;;;;;;;5018729;28;20227;-65
2023/01/29 10:00:47;;;;;;;33.03;19.07;;;;;;;;;;5032228;28;20242;-66
2023/01/29 10:03:26;;;;;;;29.87;17.10;;;;;;;;;;5043394;28;20673;-66
2023/01/29 10:06:06;;;;;;;33.63;17.57;;;;;;;;;;5009396;28;20198;-66
2023/01/29 10:08:46;;;;;;;32.93;17.70;;;;;;;;;;5024256;28;20249;-66
2023/01/29 10:11:22;;;;;;;33.10;19.00;;;;;;;;;;5021067;28;20192;-66
2023/01/29 10:13:59;;;;;;;31.40;16.67;;;;;;;;;;5025759;28;20210;-66
2023/01/29 10:16:37;;;;;;;30.47;16.80;;;;;;;;;;5012632;28;20198;-65
2023/01/29 10:19:30;;;;;;;36.00;18.20;;;;;;;;;;5016918;28;20185;-66
2023/01/29 10:22:07;;;;;;;28.97;16.73;;;;;;;;;;5039229;28;20207;-65
2023/01/29 10:25:01;;;;;;;32.23;17.87;;;;;;;;;;5038997;28;20185;-66
2023/01/29 10:27:34;;;;;;;29.60;16.97;;;;;;;;;;5036660;28;20577;-66
2023/01/29 10:30:05;;;;;;;29.57;17.27;;;;;;;;;;5040621;28;20220;-65
2023/01/29 10:32:34;;;;;;;31.83;17.07;;;;;;;;;;5035024;28;20186;-65
2023/01/29 10:35:04;;;;;;;29.23;16.80;;;;;;;;;;5009649;28;20276;-65
2023/01/29 10:37:40;;;;;;;29.03;17.07;;;;;;;;;;5035594;28;20616;-66
2023/01/29 10:40:20;;;;;;;32.43;17.50;;;;;;;;;;5043957;28;20200;-66
2023/01/29 10:42:55;;;;;;;32.13;17.00;;;;;;;;;;5038043;28;20230;-66
2023/01/29 10:45:23;;;;;;;32.23;18.70;;;;;;;;;;5041613;28;20225;-66
2023/01/29 10:48:40;;;;;;;33.00;17.43;;;;;;;;;;5032749;28;20206;-65
2023/01/29 10:51:27;;;;;;;30.77;17.97;;;;;;;;;;5028690;28;20189;-65
2023/01/29 10:54:18;;;;;;;31.77;17.23;;;;;;;;;;5013967;28;20244;-65
2023/01/29 10:57:07;;;;;;;31.37;17.13;;;;;;;;;;5039299;28;20209;-65
2023/01/29 10:59:51;;;;;;;33.07;17.10;;;;;;;;;;5041718;28;20178;-65
2023/01/29 11:02:20;;;;;;;28.87;17.33;;;;;;;;;;5025900;28;20190;-65
2023/01/29 11:04:46;;;;;;;28.87;16.93;;;;;;;;;;5053395;28;20218;-65
2023/01/29 11:07:15;;;;;;;30.40;17.27;;;;;;;;;;5037153;28;20209;-65
2023/01/29 11:09:40;;;;;;;31.30;18.03;;;;;;;;;;5037395;28;20610;-65
2023/01/29 11:12:19;;;;;;;28.83;17.50;;;;;;;;;;4338208;28;10000819;-65
2023/01/29 11:14:50;;;;;;;30.50;17.57;;;;;;;;;;5024977;28;20709;-65
2023/01/29 11:17:21;;;;;;;32.23;17.83;;;;;;;;;;5035245;28;20190;-66
2023/01/29 11:19:50;;;;;;;29.27;17.23;;;;;;;;;;5038856;28;20220;-65
2023/01/29 11:22:21;;;;;;;31.83;17.63;;;;;;;;;;5036693;28;20731;-65
2023/01/29 11:25:19;;;;;;;33.67;17.93;;;;;;;;;;5037064;28;20216;-65
2023/01/29 11:27:44;;;;;;;30.57;17.37;;;;;;;;;;5045607;28;20735;-66
2023/01/29 11:30:24;;;;;;;32.90;16.80;;;;;;;;;;5034989;28;20225;-66
2023/01/29 11:33:04;;;;;;;29.97;17.43;;;;;;;;;;5039924;28;20220;-65
2023/01/29 11:35:32;;;;;;;29.90;16.60;;;;;;;;;;5036498;28;20201;-65
2023/01/29 11:38:24;;;;;;;28.17;16.40;;;;;;;;;;5026923;28;20286;-65
2023/01/29 11:40:50;;;;;;;29.53;16.67;;;;;;;;;;5018087;28;20490;-65
2023/01/29 11:43:23;;;;;;;32.83;17.97;;;;;;;;;;5032108;28;20190;-66
2023/01/29 11:45:52;;;;;;;29.17;17.33;;;;;;;;;;5031515;28;20209;-66
2023/01/29 11:48:20;;;;;;;29.97;17.40;;;;;;;;;;5042474;28;20671;-65
2023/01/29 11:50:56;;;;;;;30.17;17.33;;;;;;;;;;5032758;28;20389;-65
2023/01/29 11:53:42;;;;;;;32.07;17.53;;;;;;;;;;5034316;28;20185;-66
2023/01/29 11:56:23;;;;;;;31.57;16.73;;;;;;;;;;5031620;28;20198;-66
2023/01/29 11:58:52;;;;;;;27.73;17.07;;;;;;;;;;5027274;28;20185;-66
2023/01/29 12:01:29;;;;;;;29.27;16.33;;;;;;;;;;5020950;28;20206;-66
2023/01/29 12:03:54;;;;;;;30.13;16.10;;;;;;;;;;5017127;28;20200;-66
2023/01/29 12:06:31;;;;;;;33.13;16.93;;;;;;;;;;5024824;28;20194;-66
2023/01/29 12:09:00;;;;;;;28.57;17.53;;;;;;;;;;5034144;28;20189;-66
2023/01/29 12:11:33;;;;;;;30.97;17.37;;;;;;;;;;5035288;28;20193;-66
2023/01/29 12:14:04;;;;;;;28.93;16.90;;;;;;;;;;5032137;28;20198;-66
2023/01/29 12:16:39;;;;;;;27.17;16.70;;;;;;;;;;5034185;28;20625;-67
2023/01/29 12:19:12;;;;;;;32.37;17.17;;;;;;;;;;5036914;28;20462;-66
2023/01/29 12:21:41;;;;;;;29.57;17.80;;;;;;;;;;5037259;28;20291;-66
2023/01/29 12:24:19;;;;;;;29.83;17.57;;;;;;;;;;5032721;28;20209;-66
2023/01/29 12:26:53;;;;;;;31.33;16.27;;;;;;;;;;5035233;28;20713;-66
2023/01/29 12:29:57;;;;;;;33.03;18.17;;;;;;;;;;5034539;28;20280;-66
2023/01/29 12:32:34;;;;;;;29.33;17.60;;;;;;;;;;5023049;28;20717;-67
2023/01/29 12:35:21;;;;;;;36.33;19.17;;;;;;;;;;5025360;28;20190;-66
2023/01/29 12:38:18;;;;;;;30.47;18.00;;;;;;;;;;5036648;28;20217;-65
2023/01/29 12:40:54;;;;;;;31.37;19.27;;;;;;;;;;5032061;28;20203;-65
2023/01/29 12:43:30;;;;;;;31.53;18.80;;;;;;;;;;5039009;28;20197;-65
2023/01/29 12:45:57;;;;;;;31.77;18.97;;;;;;;;;;5037966;28;20236;-65
2023/01/29 12:48:36;;;;;;;33.50;19.00;;;;;;;;;;5030924;28;20201;-67
2023/01/29 12:51:25;;;;;;;31.20;19.77;;;;;;;;;;5035303;28;20182;-64
2023/01/29 12:53:56;;;;;;;31.10;19.13;;;;;;;;;;5035749;28;20845;-65
2023/01/29 12:56:49;;;;;;;30.17;19.43;;;;;;;;;;5031083;28;20249;-66
2023/01/29 12:59:19;;;;;;;32.57;19.63;;;;;;;;;;5029964;28;20212;-66
2023/01/29 13:01:51;;;;;;;35.50;20.90;;;;;;;;;;5029526;28;20209;-65
2023/01/29 13:04:22;;;;;;;33.40;20.87;;;;;;;;;;5029462;28;20197;-65
2023/01/29 13:06:54;;;;;;;35.87;20.40;;;;;;;;;;5028303;28;20190;-65
2023/01/29 13:09:28;;;;;;;31.50;19.87;;;;;;;;;;5033636;28;20238;-65
2023/01/29 13:12:09;;;;;;;39.13;21.80;;;;;;;;;;5025815;28;20221;-65
2023/01/29 13:14:44;;;;;;;33.00;19.37;;;;;;;;;;5022426;28;20276;-66
2023/01/29 13:17:39;;;;;;;34.90;21.30;;;;;;;;;;5033577;28;20220;-65
2023/01/29 13:20:18;;;;;;;31.77;20.47;;;;;;;;;;5001466;28;20263;-65
2023/01/29 13:22:46;;;;;;;35.07;21.77;;;;;;;;;;5032549;28;20243;-65
2023/01/29 13:25:16;;;;;;;34.97;21.67;;;;;;;;;;5034352;28;20661;-66
2023/01/29 13:27:44;;;;;;;33.10;21.43;;;;;;;;;;5018853;28;20246;-65
2023/01/29 13:30:27;;;;;;;37.67;22.13;;;;;;;;;;5032716;28;20256;-65
2023/01/29 13:32:54;;;;;;;34.87;21.80;;;;;;;;;;5035052;28;20300;-66
2023/01/29 13:35:22;;;;;;;35.27;21.73;;;;;;;;;;5026349;28;20221;-65
2023/01/29 13:37:53;;;;;;;36.90;22.13;;;;;;;;;;5025251;28;20190;-65
2023/01/29 13:40:30;;;;;;;35.33;22.43;;;;;;;;;;5033253;28;20298;-66
2023/01/29 13:42:56;;;;;;;38.20;23.47;;;;;;;;;;5034433;28;20596;-65
2023/01/29 13:45:24;;;;;;;39.23;23.07;;;;;;;;;;5035566;28;20224;-65
2023/01/29 13:47:51;;;;;;;37.43;23.43;;;;;;;;;;5039980;28;20186;-65
2023/01/29 13:50:29;;;;;;;37.23;22.67;;;;;;;;;;5023417;28;20200;-66
2023/01/29 13:53:01;;;;;;;37.13;22.10;;;;;;;;;;5032569;28;20239;-66
2023/01/29 13:55:30;;;;;;;36.73;23.63;;;;;;;;;;5034368;28;20767;-66
2023/01/29 13:58:14;;;;;;;38.90;23.43;;;;;;;;;;5005069;28;20406;-66
2023/01/29 14:00:39;;;;;;;33.37;21.30;;;;;;;;;;5032865;28;20212;-66
2023/01/29 14:03:07;;;;;;;38.20;23.43;;;;;;;;;;5038520;28;20189;-65
2023/01/29 14:05:41;;;;;;;38.50;23.20;;;;;;;;;;5037683;28;20273;-65
2023/01/29 14:08:12;;;;;;;41.47;24.30;;;;;;;;;;5038450;28;20202;-65
2023/01/29 14:10:40;;;;;;;37.90;24.13;;;;;;;;;;5041127;28;20228;-66
2023/01/29 14:13:16;;;;;;;39.90;25.10;;;;;;;;;;5040921;28;20177;-66
2023/01/29 14:15:43;;;;;;;37.47;24.20;;;;;;;;;;5041639;28;20248;-66
2023/01/29 14:18:18;;;;;;;38.40;24.20;;;;;;;;;;5041934;28;20196;-66
2023/01/29 14:20:46;;;;;;;42.13;25.07;;;;;;;;;;5035037;28;20184;-66
2023/01/29 14:24:06;;;;;;;38.97;24.23;;;;;;;;;;5038146;28;20669;-66
2023/01/29 14:26:44;;;;;;;43.00;25.07;;;;;;;;;;5020503;28;20205;-66
2023/01/29 14:29:21;;;;;;;41.63;24.53;;;;;;;;;;5035324;28;20255;-66
2023/01/29 14:31:57;;;;;;;46.20;25.43;;;;;;;;;;5040687;28;20675;-66
2023/01/29 14:34:22;;;;;;;44.73;27.70;;;;;;;;;;5034826;28;20184;-66
2023/01/29 14:36:54;;;;;;;43.90;25.77;;;;;;;;;;5041329;28;20206;-66
2023/01/29 14:39:43;;;;;;;40.70;24.63;;;;;;;;;;5043175;28;20394;-66
2023/01/29 14:42:23;;;;;;;47.27;26.97;;;;;;;;;;5032915;28;20193;-66
2023/01/29 14:45:27;;;;;;;44.40;25.87;;;;;;;;;;5026661;28;20648;-65
2023/01/29 14:48:34;;;;;;;46.33;26.23;;;;;;;;;;5011591;28;20206;-67
2023/01/29 14:51:13;;;;;;;42.67;26.03;;;;;;;;;;5021028;28;20652;-66
2023/01/29 14:54:00;;;;;;;47.03;27.40;;;;;;;;;;5045776;28;20174;-65
2023/01/29 14:56:42;;;;;;;42.47;25.97;;;;;;;;;;5034950;28;20209;-67
2023/01/29 14:59:28;;;;;;;48.60;26.77;;;;;;;;;;5037654;28;20212;-65
2023/01/29 15:01:56;;;;;;;41.63;27.10;;;;;;;;;;5042271;28;20237;-66
2023/01/29 15:04:39;;;;;;;42.70;25.43;;;;;;;;;;5043410;28;20190;-66
2023/01/29 15:07:10;;;;;;;45.67;27.83;;;;;;;;;;5041795;28;20213;-66
2023/01/29 15:09:45;;;;;;;45.07;26.63;;;;;;;;;;5038368;28;20177;-65
2023/01/29 15:12:40;;;;;;;44.47;25.97;;;;;;;;;;5043567;28;20203;-66
2023/01/29 15:15:23;;;;;;;44.97;26.73;;;;;;;;;;5040681;28;20204;-66
2023/01/29 15:18:02;;;;;;;43.30;25.60;;;;;;;;;;5040212;28;20572;-66